Time;durP1;ratioP1;P1;durP2;ratioP2;P2;SDS_P1;SDS_P2;PMS_P1;PMS_P2;Temp;Humidity;BMP_temperature;BMP_pressure;BME280_temperature;BME280_humidity;BME280_pressure;Samples;Min_cycle;Max_cycle;Signal;HPM_P1;HPM_P2
2023/12/01 00:01:20;;;;;;;27.90;13.57;;;;;;;-2.51;100.00;96998.22;6104472;19;20002;-72
2023/12/01 00:03:20;;;;;;;35.65;16.10;;;;;;;-2.51;100.00;96998.22;6105341;19;20355;-72
2023/12/01 00:05:21;;;;;;;34.17;16.33;;;;;;;-2.51;100.00;97002.84;6104433;19;20467;-72
2023/12/01 00:07:21;;;;;;;33.30;16.40;;;;;;;-2.55;100.00;97006.22;6105387;19;20035;-72
2023/12/01 00:09:21;;;;;;;34.05;15.52;;;;;;;-2.57;100.00;97005.75;6104634;19;20322;-72
2023/12/01 00:11:22;;;;;;;34.85;15.70;;;;;;;-2.56;100.00;97007.34;6105304;19;20011;-72
2023/12/01 00:13:22;;;;;;;35.05;16.08;;;;;;;-2.55;100.00;97008.94;6104078;19;20014;-72
2023/12/01 00:15:22;;;;;;;37.22;17.42;;;;;;;-2.55;100.00;97016.28;6104618;19;20026;-72
2023/12/01 00:17:22;;;;;;;34.17;17.13;;;;;;;-2.54;100.00;97015.16;6103957;19;20066;-72
2023/12/01 00:19:23;;;;;;;33.67;16.13;;;;;;;-2.52;100.00;97007.47;6103708;19;20003;-71
2023/12/01 00:21:23;;;;;;;40.40;17.65;;;;;;;-2.51;100.00;97010.97;6104957;19;20013;-71
2023/12/01 00:23:24;;;;;;;35.15;15.95;;;;;;;-2.50;100.00;97010.66;6104607;19;20483;-72
2023/12/01 00:25:25;;;;;;;32.35;14.38;;;;;;;-2.50;100.00;97021.47;6104132;19;20037;-71
2023/12/01 00:27:25;;;;;;;34.88;16.42;;;;;;;-2.55;100.00;97008.94;6101000;19;19999;-71
2023/12/01 00:29:25;;;;;;;34.40;15.30;;;;;;;-2.51;100.00;97013.69;6096646;19;20006;-71
2023/12/01 00:31:26;;;;;;;40.22;16.00;;;;;;;-2.51;100.00;97011.78;6097927;19;20006;-72
2023/12/01 00:33:26;;;;;;;30.67;15.48;;;;;;;-2.50;100.00;97028.81;6097218;19;20007;-71
2023/12/01 00:35:26;;;;;;;34.05;15.32;;;;;;;-2.51;100.00;97013.69;6097538;19;20006;-71
2023/12/01 00:37:27;;;;;;;32.03;15.38;;;;;;;-2.49;100.00;97014.94;6097157;19;20006;-72
2023/12/01 00:39:27;;;;;;;36.72;18.00;;;;;;;-2.47;100.00;97010.00;6096024;19;20344;-71
2023/12/01 00:41:27;;;;;;;32.25;15.73;;;;;;;-2.45;100.00;97024.00;6098078;19;20010;-72
2023/12/01 00:43:28;;;;;;;37.35;15.95;;;;;;;-2.39;100.00;97025.41;6096707;19;19998;-72
2023/12/01 00:45:28;;;;;;;34.38;15.65;;;;;;;-2.39;100.00;97025.41;6096978;19;20019;-72
2023/12/01 00:47:28;;;;;;;36.20;15.10;;;;;;;-2.44;100.00;97032.94;6097472;19;20014;-72
2023/12/01 00:49:31;;;;;;;31.52;14.40;;;;;;;-2.47;100.00;97037.09;6096081;19;20041;-72
2023/12/01 00:51:31;;;;;;;35.38;16.45;;;;;;;-2.48;100.00;97040.94;6096776;19;20002;-72
2023/12/01 00:53:32;;;;;;;37.70;16.58;;;;;;;-2.49;100.00;97033.91;6096076;19;20010;-71
2023/12/01 00:55:32;;;;;;;28.73;13.20;;;;;;;-2.51;100.00;97032.66;6097170;19;20010;-72
2023/12/01 00:57:32;;;;;;;34.88;14.55;;;;;;;-2.45;100.00;97025.94;6097302;19;20006;-72
2023/12/01 00:59:33;;;;;;;31.35;14.77;;;;;;;-2.47;100.00;97030.88;6095023;19;20234;-72
2023/12/01 01:01:35;;;;;;;35.05;16.00;;;;;;;-2.48;100.00;97021.16;6097118;19;20044;-72
2023/12/01 01:03:35;;;;;;;30.48;14.90;;;;;;;-2.45;100.00;97025.94;6096788;19;20016;-72
2023/12/01 01:05:36;;;;;;;29.55;14.10;;;;;;;-2.39;100.00;97030.84;6096538;19;20006;-72
2023/12/01 01:07:36;;;;;;;31.33;13.45;;;;;;;-2.41;100.00;97016.78;6096056;19;20436;-72
2023/12/01 01:09:36;;;;;;;29.15;13.20;;;;;;;-2.43;100.00;97023.69;6094374;19;20006;-72
2023/12/01 01:11:37;;;;;;;28.05;14.45;;;;;;;-2.47;100.00;97017.34;6096011;19;19999;-71
2023/12/01 01:13:37;;;;;;;31.40;14.60;;;;;;;-2.52;100.00;97023.72;6095906;19;20313;-72
2023/12/01 01:15:38;;;;;;;36.75;15.27;;;;;;;-2.53;100.00;97022.16;6097151;19;20557;-71
2023/12/01 01:17:38;;;;;;;33.95;16.52;;;;;;;-2.56;100.00;97029.03;6096274;19;20010;-71
2023/12/01 01:19:39;;;;;;;32.40;16.17;;;;;;;-2.56;100.00;97029.03;6094565;19;20229;-71
2023/12/01 01:21:39;;;;;;;39.35;15.32;;;;;;;-2.57;100.00;97022.00;6096847;19;20014;-72
2023/12/01 01:23:40;;;;;;;34.72;15.23;;;;;;;-2.55;100.00;97024.41;6095282;19;20084;-72
2023/12/01 01:25:40;;;;;;;37.88;14.88;;;;;;;-2.59;100.00;97024.25;6096235;19;20002;-71
2023/12/01 01:27:41;;;;;;;35.85;15.75;;;;;;;-2.58;100.00;97015.00;6097777;19;20013;-72
2023/12/01 01:29:41;;;;;;;36.00;15.30;;;;;;;-2.56;100.00;97026.31;6102752;19;21277;-72
2023/12/01 01:31:41;;;;;;;34.95;16.58;;;;;;;-2.53;100.00;97026.78;6102373;19;20003;-72
2023/12/01 01:33:42;;;;;;;30.95;14.73;;;;;;;-2.55;100.00;97024.41;6102050;19;20006;-71
2023/12/01 01:35:42;;;;;;;35.40;16.17;;;;;;;-2.53;100.00;97021.34;6102402;19;20363;-72
2023/12/01 01:37:42;;;;;;;31.92;13.30;;;;;;;-2.55;100.00;97027.91;6102012;19;19999;-72
2023/12/01 01:39:43;;;;;;;35.33;14.80;;;;;;;-2.58;100.00;97020.41;6102366;19;19999;-71
2023/12/01 01:41:43;;;;;;;33.65;15.27;;;;;;;-2.56;100.00;97020.09;6102424;19;20523;-72
2023/12/01 01:43:44;;;;;;;35.13;15.75;;;;;;;-2.56;100.00;97022.81;6101885;19;20003;-72
2023/12/01 01:45:44;;;;;;;36.20;14.90;;;;;;;-2.56;100.00;97031.72;6102208;19;20023;-71
2023/12/01 01:47:45;;;;;;;30.77;14.93;;;;;;;-2.57;100.00;97024.69;6100491;19;20010;-72
2023/12/01 01:49:45;;;;;;;33.28;14.40;;;;;;;-2.55;100.00;97030.59;6102914;19;20462;-72
2023/12/01 01:51:46;;;;;;;35.55;15.05;;;;;;;-2.54;100.00;97020.56;6101633;19;20405;-72
2023/12/01 01:53:47;;;;;;;36.83;16.20;;;;;;;-2.60;100.00;97030.78;6101597;19;20019;-71
2023/12/01 01:55:48;;;;;;;37.53;15.45;;;;;;;-2.58;100.00;97036.66;6102678;19;20014;-72
2023/12/01 01:57:49;;;;;;;37.67;15.90;;;;;;;-2.57;100.00;97034.75;6100369;19;20347;-72
2023/12/01 01:59:50;;;;;;;35.67;16.02;;;;;;;-2.56;100.00;97028.22;6101800;19;20532;-72
2023/12/01 02:01:51;;;;;;;36.58;14.77;;;;;;;-2.55;100.00;97038.72;6101901;19;20007;-72
2023/12/01 02:03:52;;;;;;;32.00;14.52;;;;;;;-2.55;100.00;97035.22;6102029;19;20043;-72
2023/12/01 02:05:53;;;;;;;29.97;14.67;;;;;;;-2.51;100.00;97036.16;6101443;19;20011;-72
2023/12/01 02:07:53;;;;;;;35.40;13.93;;;;;;;-2.50;100.00;97043.16;6100932;19;20450;-71
2023/12/01 02:09:57;;;;;;;33.10;13.68;;;;;;;-2.54;100.00;97034.09;6101796;19;20025;-71
2023/12/01 02:11:57;;;;;;;34.13;14.45;;;;;;;-2.51;100.00;97044.28;6100974;19;20613;-71
2023/12/01 02:14:00;;;;;;;36.80;14.93;;;;;;;-2.50;100.00;97045.84;6101429;19;20019;-72
2023/12/01 02:16:01;;;;;;;40.45;15.35;;;;;;;-2.50;100.00;97045.06;6101264;19;20403;-71
2023/12/01 02:18:01;;;;;;;33.03;14.30;;;;;;;-2.46;100.00;97057.63;6099838;19;20006;-72
2023/12/01 02:20:03;;;;;;;33.05;13.82;;;;;;;-2.46;100.00;97048.72;6101175;19;20071;-72
2023/12/01 02:22:03;;;;;;;42.30;17.00;;;;;;;-2.45;100.00;97053.00;6097605;19;20006;-72
2023/12/01 02:24:04;;;;;;;33.15;14.35;;;;;;;-2.46;100.00;97043.31;6100888;19;20017;-71
2023/12/01 02:26:04;;;;;;;37.70;14.65;;;;;;;-2.47;100.00;97047.13;6100256;19;20598;-72
2023/12/01 02:28:05;;;;;;;34.92;14.98;;;;;;;-2.50;100.00;97050.47;6099775;19;20014;-72
2023/12/01 02:30:06;;;;;;;35.85;14.13;;;;;;;-2.53;100.00;97041.09;6101039;19;20002;-72
2023/12/01 02:32:07;;;;;;;38.25;15.25;;;;;;;-2.49;100.00;97049.34;6101549;19;20695;-72
2023/12/01 02:34:08;;;;;;;39.63;15.60;;;;;;;-2.51;100.00;97051.59;6101369;19;20031;-71
2023/12/01 02:36:11;;;;;;;35.88;15.90;;;;;;;-2.53;100.00;97051.94;6101091;19;20255;-71
2023/12/01 02:38:11;;;;;;;37.58;15.05;;;;;;;-2.50;100.00;97061.31;6100785;19;20319;-72
2023/12/01 02:40:15;;;;;;;36.85;13.65;;;;;;;-2.48;100.00;97056.34;6100695;19;20007;-72
2023/12/01 02:42:15;;;;;;;32.70;14.00;;;;;;;-2.45;100.00;97053.00;6102081;19;20003;-71
2023/12/01 02:44:16;;;;;;;37.72;15.18;;;;;;;-2.43;100.00;97043.44;6100820;19;20449;-72
2023/12/01 02:46:22;;;;;;;34.90;15.63;;;;;;;-2.47;100.00;97045.22;6101638;19;20070;-72
2023/12/01 02:48:23;;;;;;;34.72;14.85;;;;;;;-2.47;100.00;97039.81;6099757;19;19999;-72
2023/12/01 02:50:24;;;;;;;33.83;13.70;;;;;;;-2.51;100.00;97043.47;6102136;19;20078;-72
2023/12/01 02:52:25;;;;;;;37.47;15.23;;;;;;;-2.50;100.00;97034.22;6100644;19;20447;-72
2023/12/01 02:54:25;;;;;;;34.03;16.35;;;;;;;-2.46;100.00;97038.69;6100844;19;20006;-71
2023/12/01 02:56:26;;;;;;;33.38;14.50;;;;;;;-2.43;100.00;97029.88;6101221;19;20102;-72
2023/12/01 02:58:26;;;;;;;37.00;15.73;;;;;;;-2.49;100.00;97039.31;6100479;19;20027;-71
2023/12/01 03:00:27;;;;;;;36.50;15.10;;;;;;;-2.50;100.00;97034.22;6100953;19;20010;-72
2023/12/01 03:02:28;;;;;;;34.80;14.07;;;;;;;-2.48;100.00;97034.69;6101638;19;20010;-71
2023/12/01 03:04:28;;;;;;;33.45;14.77;;;;;;;-2.53;100.00;97034.91;6101281;19;20018;-72
2023/12/01 03:06:29;;;;;;;33.90;15.15;;;;;;;-2.50;100.00;97045.06;6100333;19;20006;-71
2023/12/01 03:08:29;;;;;;;33.17;14.65;;;;;;;-2.56;100.00;97037.16;6100273;19;20628;-72
2023/12/01 03:10:29;;;;;;;34.28;13.23;;;;;;;-2.58;100.00;97041.28;6100862;19;20006;-72
2023/12/01 03:12:30;;;;;;;32.45;14.88;;;;;;;-2.59;100.00;97037.00;6101648;19;20054;-72
2023/12/01 03:14:30;;;;;;;31.63;13.15;;;;;;;-2.63;100.00;97049.63;6101081;19;20020;-72
2023/12/01 03:16:30;;;;;;;38.95;15.50;;;;;;;-2.65;100.00;97052.66;6100764;19;20031;-71
2023/12/01 03:18:31;;;;;;;38.55;15.40;;;;;;;-2.60;100.00;97051.66;6099899;19;20025;-72
2023/12/01 03:20:31;;;;;;;30.63;13.95;;;;;;;-2.61;100.00;97053.56;6101625;19;20020;-71
2023/12/01 03:22:31;;;;;;;33.05;14.02;;;;;;;-2.63;100.00;97061.22;6100749;19;20022;-71
2023/12/01 03:24:32;;;;;;;37.67;14.07;;;;;;;-2.62;100.00;97068.22;6100178;19;20459;-72
2023/12/01 03:26:32;;;;;;;35.95;15.10;;;;;;;-2.63;100.00;97069.34;6099891;19;20561;-72
2023/12/01 03:28:32;;;;;;;35.13;13.38;;;;;;;-2.62;100.00;97064.72;6100183;19;20423;-72
2023/12/01 03:30:33;;;;;;;37.75;15.55;;;;;;;-2.61;100.00;97059.00;6100994;19;20010;-72
2023/12/01 03:32:33;;;;;;;31.70;14.63;;;;;;;-2.58;100.00;97066.44;6101341;19;20014;-71
2023/12/01 03:34:34;;;;;;;39.38;14.95;;;;;;;-2.59;100.00;97074.91;6105620;19;20866;-72
2023/12/01 03:36:34;;;;;;;34.78;15.15;;;;;;;-2.58;100.00;97074.56;6107252;19;20003;-72
2023/12/01 03:38:35;;;;;;;35.50;14.90;;;;;;;-2.57;100.00;97075.34;6104967;19;20917;-72
2023/12/01 03:40:35;;;;;;;38.63;15.68;;;;;;;-2.57;100.00;97081.56;6106715;19;20006;-72
2023/12/01 03:42:44;;;;;;;38.03;16.52;;;;;;;-2.53;100.00;97080.94;6105798;19;20804;-72
2023/12/01 03:44:45;;;;;;;37.10;13.82;;;;;;;-2.51;100.00;97087.59;6105256;19;20015;-71
2023/12/01 03:46:45;;;;;;;34.30;14.13;;;;;;;-2.55;100.00;97081.25;6104296;19;20018;-72
2023/12/01 03:48:45;;;;;;;33.97;15.68;;;;;;;-2.59;100.00;97077.59;6105491;19;20017;-71
2023/12/01 03:50:46;;;;;;;34.85;14.65;;;;;;;-2.57;100.00;97073.44;6105388;19;20007;-71
2023/12/01 03:52:51;;;;;;;33.00;14.30;;;;;;;-2.55;100.00;97081.25;6105194;19;20017;-72
2023/12/01 03:54:51;;;;;;;33.10;13.60;;;;;;;-2.58;100.00;97079.97;6105838;19;20007;-72
2023/12/01 03:56:51;;;;;;;32.80;14.75;;;;;;;-2.56;100.00;97087.81;6105595;19;20556;-72
2023/12/01 03:58:57;;;;;;;32.85;14.35;;;;;;;-2.60;100.00;97079.53;6104479;19;20011;-71
2023/12/01 04:00:58;;;;;;;39.03;15.52;;;;;;;-2.58;100.00;97085.41;6104724;19;20015;-71
2023/12/01 04:02:58;;;;;;;33.22;15.10;;;;;;;-2.55;100.00;97083.97;6106008;19;20336;-71
2023/12/01 04:04:59;;;;;;;37.70;14.77;;;;;;;-2.55;100.00;97081.25;6105137;19;20003;-72
2023/12/01 04:06:59;;;;;;;33.00;14.07;;;;;;;-2.53;100.00;97089.06;6104336;19;20007;-72
2023/12/01 04:09:05;;;;;;;28.55;13.32;;;;;;;-2.55;100.00;97086.69;6104638;19;20213;-72
2023/12/01 04:11:06;;;;;;;35.75;14.52;;;;;;;-2.59;100.00;97078.41;6105725;19;20032;-71
2023/12/01 04:13:07;;;;;;;34.42;15.25;;;;;;;-2.54;100.00;97088.28;6105112;19;20006;-72
2023/12/01 04:15:08;;;;;;;30.85;14.52;;;;;;;-2.55;100.00;97083.97;6104616;19;20103;-71
2023/12/01 04:17:13;;;;;;;35.03;15.98;;;;;;;-2.52;100.00;97087.94;6103627;19;20033;-71
2023/12/01 04:19:13;;;;;;;36.75;14.32;;;;;;;-2.53;100.00;97084.44;6104166;19;20014;-72
2023/12/01 04:21:13;;;;;;;36.45;13.88;;;;;;;-2.51;100.00;97084.91;6102888;19;20800;-72
2023/12/01 04:23:15;;;;;;;37.35;15.95;;;;;;;-2.57;100.00;97086.97;6104234;19;20011;-72
2023/12/01 04:25:15;;;;;;;41.92;16.42;;;;;;;-2.56;100.00;97082.38;6103429;19;20010;-72
2023/12/01 04:27:15;;;;;;;38.90;15.70;;;;;;;-2.54;100.00;97088.28;6096777;19;20118;-71
2023/12/01 04:29:16;;;;;;;37.97;14.38;;;;;;;-2.58;100.00;97087.31;6103310;19;20018;-71
2023/12/01 04:31:16;;;;;;;41.30;16.27;;;;;;;-2.58;100.00;97088.09;6103482;19;20036;-72
2023/12/01 04:33:16;;;;;;;38.92;15.95;;;;;;;-2.60;100.00;97095.78;6104710;19;20848;-71
2023/12/01 04:35:17;;;;;;;37.75;15.35;;;;;;;-2.57;100.00;97088.91;6102646;19;21067;-72
2023/12/01 04:37:17;;;;;;;36.95;15.45;;;;;;;-2.61;100.00;97091.47;6103373;19;20377;-71
2023/12/01 04:39:17;;;;;;;43.78;17.05;;;;;;;-2.66;100.00;97094.34;6103629;19;20010;-71
2023/12/01 04:41:18;;;;;;;43.10;17.73;;;;;;;-2.69;100.00;97100.44;6103866;19;20008;-71
2023/12/01 04:43:18;;;;;;;38.92;15.25;;;;;;;-2.67;100.00;97103.59;6104707;19;20015;-71
2023/12/01 04:45:20;;;;;;;47.25;18.02;;;;;;;-2.72;100.00;97100.31;6101614;19;19999;-72
2023/12/01 04:47:20;;;;;;;46.83;17.50;;;;;;;-2.72;100.00;97105.72;6103409;19;20390;-71
2023/12/01 04:49:21;;;;;;;41.05;17.38;;;;;;;-2.76;100.00;97104.75;6103272;19;20490;-71
2023/12/01 04:51:21;;;;;;;45.08;19.15;;;;;;;-2.71;100.00;97101.88;6103789;19;20010;-72
2023/12/01 04:53:21;;;;;;;54.13;21.67;;;;;;;-2.72;100.00;97106.50;6104452;19;20233;-72
2023/12/01 04:55:27;;;;;;;48.85;20.05;;;;;;;-2.71;100.00;97110.00;6103462;19;20041;-71
2023/12/01 04:57:27;;;;;;;43.28;17.58;;;;;;;-2.74;100.00;97110.63;6104328;19;20003;-72
2023/12/01 04:59:28;;;;;;;52.80;18.85;;;;;;;-2.71;100.00;97118.13;6102490;19;20836;-72
2023/12/01 05:01:28;;;;;;;43.65;16.85;;;;;;;-2.74;100.00;97122.25;6103964;19;20017;-71
2023/12/01 05:03:29;;;;;;;52.70;21.15;;;;;;;-2.74;100.00;97116.06;6103632;19;20462;-72
2023/12/01 05:05:31;;;;;;;40.05;15.85;;;;;;;-2.73;100.00;97117.63;6102452;19;20007;-72
2023/12/01 05:07:31;;;;;;;43.20;15.90;;;;;;;-2.71;100.00;97120.84;6104164;19;20313;-72
2023/12/01 05:09:32;;;;;;;52.22;18.67;;;;;;;-2.73;100.00;97106.81;6103719;19;20330;-71
2023/12/01 05:11:32;;;;;;;36.83;15.55;;;;;;;-2.78;100.00;97125.97;6103697;19;20078;-71
2023/12/01 05:13:32;;;;;;;35.97;15.70;;;;;;;-2.75;100.00;97122.59;6099203;19;19999;-72
2023/12/01 05:15:35;;;;;;;43.50;17.70;;;;;;;-2.76;100.00;97123.72;6103609;19;20014;-72
2023/12/01 05:17:36;;;;;;;36.00;14.13;;;;;;;-2.77;100.00;97122.91;6103113;19;20006;-71
2023/12/01 05:19:37;;;;;;;33.63;13.63;;;;;;;-2.74;100.00;97129.59;6099230;19;20375;-72
2023/12/01 05:21:37;;;;;;;37.67;14.85;;;;;;;-2.76;100.00;97131.84;6102844;19;20003;-72
2023/12/01 05:23:37;;;;;;;35.53;16.23;;;;;;;-2.73;100.00;97117.63;6102253;19;20015;-72
2023/12/01 05:25:41;;;;;;;35.00;16.38;;;;;;;-2.76;100.00;97116.38;6102628;19;20010;-71
2023/12/01 05:27:48;;;;;;;33.03;13.40;;;;;;;-2.72;100.00;97111.13;6097878;19;20092;-71
2023/12/01 05:29:48;;;;;;;40.63;15.70;;;;;;;-2.85;100.00;97112.91;6096488;19;20885;-71
2023/12/01 05:31:48;;;;;;;32.08;13.80;;;;;;;-2.82;100.00;97112.25;6095812;19;20261;-71
2023/12/01 05:33:48;;;;;;;33.38;13.55;;;;;;;-2.84;100.00;97114.50;6095021;19;20006;-71
2023/12/01 05:35:49;;;;;;;31.85;13.05;;;;;;;-2.85;100.00;97108.28;6095413;19;20004;-71
2023/12/01 05:37:51;;;;;;;35.20;14.18;;;;;;;-2.81;100.00;97119.28;6092035;19;20694;-71
2023/12/01 05:39:51;;;;;;;37.83;15.23;;;;;;;-2.82;100.00;97128.50;6095739;19;20577;-72
2023/12/01 05:41:51;;;;;;;31.45;13.13;;;;;;;-2.85;100.00;97123.75;6094994;19;20003;-72
2023/12/01 05:43:52;;;;;;;33.80;14.27;;;;;;;-2.84;100.00;97131.53;6094112;19;20021;-71
2023/12/01 05:45:52;;;;;;;34.60;16.05;;;;;;;-2.87;100.00;97126.00;6095514;19;19999;-72
2023/12/01 05:47:53;;;;;;;41.83;16.35;;;;;;;-2.89;100.00;97129.03;6094264;19;20003;-71
2023/12/01 05:49:54;;;;;;;37.22;15.07;;;;;;;-2.90;100.00;97137.44;6093214;19;20319;-71
2023/12/01 05:51:54;;;;;;;34.63;14.07;;;;;;;-2.90;100.00;97140.16;6095173;19;20011;-71
2023/12/01 05:53:54;;;;;;;31.17;15.40;;;;;;;-2.93;100.00;97144.31;6095884;19;20380;-71
2023/12/01 05:55:57;;;;;;;36.25;14.77;;;;;;;-2.94;100.00;97133.81;6094308;19;20081;-72
2023/12/01 05:57:58;;;;;;;32.95;13.60;;;;;;;-2.95;100.00;97133.00;6092082;19;20489;-71
2023/12/01 05:59:58;;;;;;;36.03;13.63;;;;;;;-2.93;100.00;97135.38;6091966;19;20798;-71
2023/12/01 06:01:59;;;;;;;28.02;13.60;;;;;;;-2.95;100.00;97133.00;6091379;19;20007;-71
2023/12/01 06:03:59;;;;;;;30.25;13.57;;;;;;;-2.97;100.00;97131.75;6090785;19;20253;-72
2023/12/01 06:06:00;;;;;;;32.28;15.23;;;;;;;-2.94;100.00;97134.59;6092644;19;20010;-72
2023/12/01 06:08:01;;;;;;;30.90;14.45;;;;;;;-2.94;100.00;97144.63;6094558;19;20009;-71
2023/12/01 06:10:04;;;;;;;29.50;13.27;;;;;;;-2.96;100.00;97147.66;6093441;19;20681;-71
2023/12/01 06:12:04;;;;;;;31.95;13.70;;;;;;;-2.95;100.00;97143.84;6094213;19;20345;-71
2023/12/01 06:14:04;;;;;;;24.67;12.50;;;;;;;-2.94;100.00;97150.03;6093699;19;20455;-71
2023/12/01 06:16:05;;;;;;;31.58;12.80;;;;;;;-2.96;100.00;97146.88;6094014;19;20003;-71
2023/12/01 06:18:06;;;;;;;32.20;13.52;;;;;;;-2.96;100.00;97150.38;6092905;19;20350;-72
2023/12/01 06:20:16;;;;;;;28.45;12.77;;;;;;;-2.95;100.00;97149.25;6091849;19;20007;-72
2023/12/01 06:22:17;;;;;;;33.83;12.98;;;;;;;-2.91;100.00;97152.09;6093387;19;20523;-72
2023/12/01 06:24:17;;;;;;;28.15;12.10;;;;;;;-2.95;100.00;97160.06;6094476;19;20540;-72
2023/12/01 06:26:17;;;;;;;31.45;12.98;;;;;;;-2.95;100.00;97167.41;6094555;19;20014;-72
2023/12/01 06:28:19;;;;;;;25.85;10.80;;;;;;;-2.96;100.00;97168.53;6097130;19;20005;-72
2023/12/01 06:30:20;;;;;;;34.78;13.77;;;;;;;-3.01;100.00;97165.97;6097264;19;20041;-72
2023/12/01 06:32:20;;;;;;;36.30;14.77;;;;;;;-3.02;100.00;97178.72;6101134;19;19995;-71
2023/12/01 06:34:20;;;;;;;32.95;13.10;;;;;;;-3.01;100.00;97179.50;6099662;19;20019;-71
2023/12/01 06:36:21;;;;;;;29.92;13.05;;;;;;;-3.04;100.00;97180.94;6100213;19;20023;-72
2023/12/01 06:38:21;;;;;;;31.63;12.77;;;;;;;-3.04;100.00;97169.34;6100676;19;20031;-71
2023/12/01 06:40:21;;;;;;;30.80;13.02;;;;;;;-3.02;100.00;97189.53;6098214;19;19998;-71
2023/12/01 06:42:22;;;;;;;30.92;14.27;;;;;;;-3.04;100.00;97191.78;6101108;19;20074;-72
2023/12/01 06:44:22;;;;;;;29.40;11.77;;;;;;;-3.06;100.00;97185.06;6100825;19;20006;-72
2023/12/01 06:46:23;;;;;;;28.73;12.23;;;;;;;-3.03;100.00;97185.25;6101554;19;19999;-72
2023/12/01 06:48:25;;;;;;;27.08;11.98;;;;;;;-3.05;100.00;97189.41;6099183;19;20021;-72
2023/12/01 06:50:26;;;;;;;31.75;13.00;;;;;;;-3.09;100.00;97188.44;6101560;19;19999;-72
2023/12/01 06:52:27;;;;;;;30.05;12.65;;;;;;;-3.04;100.00;97197.19;6101339;19;20031;-72
2023/12/01 06:54:28;;;;;;;33.70;13.27;;;;;;;-3.00;100.00;97203.53;6101755;19;20035;-72
2023/12/01 06:56:28;;;;;;;26.58;12.45;;;;;;;-3.04;100.00;97199.09;6101147;19;20015;-71
2023/12/01 06:58:29;;;;;;;31.73;12.77;;;;;;;-3.04;100.00;97210.72;6100071;19;20007;-71
2023/12/01 07:00:29;;;;;;;31.52;12.55;;;;;;;-3.05;100.00;97217.25;6094423;19;22081;-71
2023/12/01 07:02:33;;;;;;;30.48;11.80;;;;;;;-3.05;100.00;97228.06;6101166;19;20020;-71
2023/12/01 07:04:34;;;;;;;32.63;12.35;;;;;;;-3.09;100.00;97229.81;6100063;19;20010;-72
2023/12/01 07:06:35;;;;;;;30.65;12.63;;;;;;;-3.05;100.00;97235.41;6099962;19;20484;-72
2023/12/01 07:08:36;;;;;;;27.93;13.07;;;;;;;-3.07;100.00;97227.56;6098303;19;20028;-72
2023/12/01 07:10:36;;;;;;;27.17;12.10;;;;;;;-3.04;100.00;97220.75;6100046;19;20014;-71
2023/12/01 07:12:36;;;;;;;29.42;12.40;;;;;;;-3.05;100.00;97232.69;6099680;19;20069;-72
2023/12/01 07:14:38;;;;;;;27.20;11.32;;;;;;;-3.07;100.00;97230.28;6099981;19;20006;-71
2023/12/01 07:16:42;;;;;;;30.97;12.67;;;;;;;-3.11;100.00;97226.63;6099322;19;20507;-71
2023/12/01 07:18:43;;;;;;;28.33;12.05;;;;;;;-3.11;100.00;97240.16;6098998;19;20228;-71
2023/12/01 07:20:43;;;;;;;24.20;11.25;;;;;;;-3.08;100.00;97252.25;6099453;19;20014;-72
2023/12/01 07:22:48;;;;;;;32.60;13.07;;;;;;;-3.11;100.00;97257.19;6101120;19;20293;-72
2023/12/01 07:24:49;;;;;;;30.05;12.80;;;;;;;-3.14;100.00;97255.13;6100580;19;20003;-72
2023/12/01 07:26:51;;;;;;;28.58;12.80;;;;;;;-3.12;100.00;97252.91;6099467;19;20011;-72
2023/12/01 07:28:52;;;;;;;30.98;13.32;;;;;;;-3.09;100.00;97245.25;6099399;19;20006;-71
2023/12/01 07:30:52;;;;;;;30.02;12.68;;;;;;;-3.06;100.00;97258.13;6100026;19;20462;-72
2023/12/01 07:32:53;;;;;;;31.38;11.90;;;;;;;-3.10;100.00;97255.28;6099805;19;20011;-71
2023/12/01 07:34:54;;;;;;;29.65;13.93;;;;;;;-3.10;100.00;97260.69;6100049;19;20007;-71
2023/12/01 07:36:54;;;;;;;24.90;11.93;;;;;;;-3.10;100.00;97252.56;6099900;19;20501;-72
2023/12/01 07:38:54;;;;;;;27.90;12.27;;;;;;;-3.08;100.00;97249.53;6099153;19;20082;-71
2023/12/01 07:40:55;;;;;;;28.38;11.68;;;;;;;-3.07;100.00;97259.25;6100079;19;20467;-72
2023/12/01 07:42:56;;;;;;;27.65;12.05;;;;;;;-3.08;100.00;97268.50;6100429;19;20007;-72
2023/12/01 07:44:57;;;;;;;27.30;12.60;;;;;;;-3.04;100.00;97278.38;6100049;19;20555;-72
2023/12/01 07:46:57;;;;;;;26.02;12.00;;;;;;;-3.09;100.00;97267.69;6100320;19;20026;-72
2023/12/01 07:49:00;;;;;;;29.65;12.93;;;;;;;-3.08;100.00;97268.50;6098571;19;20006;-71
2023/12/01 07:51:02;;;;;;;26.98;12.77;;;;;;;-3.09;100.00;97272.31;6099886;19;20082;-72
2023/12/01 07:53:04;;;;;;;28.15;13.05;;;;;;;-3.07;100.00;97275.50;6100099;19;20014;-72
2023/12/01 07:55:05;;;;;;;28.90;12.73;;;;;;;-3.17;100.00;97263.88;6099237;19;20007;-72
2023/12/01 07:57:05;;;;;;;30.70;12.43;;;;;;;-3.20;100.00;97271.84;6100028;19;20458;-71
2023/12/01 07:59:06;;;;;;;34.83;12.63;;;;;;;-3.23;100.00;97277.88;6098901;19;20025;-71
2023/12/01 08:01:06;;;;;;;34.42;12.07;;;;;;;-3.32;100.00;97277.06;6099166;19;20362;-71
2023/12/01 08:03:08;;;;;;;25.55;11.68;;;;;;;-3.34;100.00;97282.00;6099973;19;20027;-71
2023/12/01 08:05:13;;;;;;;31.05;13.05;;;;;;;-3.50;100.00;97278.97;6098773;19;20002;-72
2023/12/01 08:07:14;;;;;;;27.60;12.68;;;;;;;-3.50;100.00;97285.16;6099250;19;20562;-71
2023/12/01 08:09:16;;;;;;;22.55;10.18;;;;;;;-3.56;100.00;97285.63;6098933;19;20022;-71
2023/12/01 08:11:19;;;;;;;;;;;;;;;-3.62;100.00;97295.81;6099417;19;20082;-72
2023/12/01 08:13:21;;;;;;;23.67;9.30;;;;;;;-3.62;100.00;97297.72;6098276;19;19922;-72
2023/12/01 08:15:21;;;;;;;28.42;12.68;;;;;;;-3.61;100.00;97302.81;6098331;19;20007;-71
2023/12/01 08:17:21;;;;;;;25.35;12.02;;;;;;;-3.60;100.00;97298.97;6098735;19;20011;-71
2023/12/01 08:19:22;;;;;;;26.95;10.60;;;;;;;-3.61;100.00;97302.81;6100627;19;20010;-71
2023/12/01 08:21:22;;;;;;;31.05;13.10;;;;;;;-3.62;100.00;97290.41;6104647;19;20014;-71
2023/12/01 08:23:22;;;;;;;25.48;11.18;;;;;;;-3.74;100.00;97295.59;6104670;19;20041;-71
2023/12/01 08:25:23;;;;;;;27.55;12.45;;;;;;;-3.72;100.00;97291.50;6104295;19;20011;-71
2023/12/01 08:27:23;;;;;;;30.27;12.38;;;;;;;-3.73;100.00;97297.19;6104518;19;20019;-71
2023/12/01 08:29:23;;;;;;;21.77;9.63;;;;;;;-3.81;100.00;97295.25;6102425;19;20011;-71
2023/12/01 08:31:24;;;;;;;26.73;11.75;;;;;;;-3.86;100.00;97298.91;6104800;19;20285;-71
2023/12/01 08:33:24;;;;;;;23.95;10.32;;;;;;;-3.83;100.00;97311.00;6103779;19;20018;-72
2023/12/01 08:35:25;;;;;;;23.98;11.88;;;;;;;-3.86;100.00;97304.31;6103171;19;20034;-71
2023/12/01 08:37:25;;;;;;;26.27;12.02;;;;;;;-3.85;100.00;97318.63;6104363;19;20011;-71
2023/12/01 08:39:25;;;;;;;22.45;10.52;;;;;;;-3.88;100.00;97308.44;6102815;19;20497;-71
2023/12/01 08:41:26;;;;;;;24.25;10.82;;;;;;;-3.87;100.00;97310.03;6103738;19;20003;-71
2023/12/01 08:43:26;;;;;;;20.98;9.75;;;;;;;-3.90;100.00;97307.94;6103783;19;20006;-72
2023/12/01 08:45:26;;;;;;;24.65;10.90;;;;;;;-3.93;100.00;97305.88;6103905;19;20074;-71
2023/12/01 08:47:27;;;;;;;22.92;9.43;;;;;;;-3.95;100.00;97308.91;6103457;19;20020;-71
2023/12/01 08:49:27;;;;;;;21.45;9.82;;;;;;;-4.01;100.00;97302.81;6103516;19;20040;-71
2023/12/01 08:51:27;;;;;;;19.70;8.93;;;;;;;-4.05;100.00;97307.28;6103841;19;20266;-72
2023/12/01 08:53:28;;;;;;;23.92;11.45;;;;;;;-4.12;100.00;97306.13;6103207;19;20359;-71
2023/12/01 08:55:28;;;;;;;21.92;10.73;;;;;;;-4.09;100.00;97314.38;6103470;19;20692;-71
2023/12/01 08:57:29;;;;;;;25.27;10.90;;;;;;;-4.12;100.00;97306.91;6103803;19;20050;-72
2023/12/01 08:59:29;;;;;;;23.60;9.88;;;;;;;-4.07;100.00;97314.88;6101708;19;20514;-72
2023/12/01 09:01:30;;;;;;;27.25;10.95;;;;;;;-4.26;100.00;97325.13;6103188;19;20013;-72
2023/12/01 09:03:30;;;;;;;22.40;9.85;;;;;;;-4.24;100.00;97318.28;6104458;19;20086;-71
2023/12/01 09:05:32;;;;;;;28.55;10.23;;;;;;;-4.24;100.00;97317.50;6103642;19;20462;-71
2023/12/01 09:07:33;;;;;;;25.42;10.55;;;;;;;-4.24;100.00;97315.59;6103945;19;20475;-71
2023/12/01 09:09:33;;;;;;;28.15;11.88;;;;;;;-4.31;100.00;97320.63;6102694;19;20070;-71